Celeryville, Ohio
Current Conditions -  °F | °C
As of 4:34 AM on Thursday 23 Oct 2014 (Local Time) from KMFD Reporting Station
Broken Clouds Broken Clouds  
Wind Chill: 37°   Ceiling: 600
Heat Index: 41°   Visibility: 8mi
Dew Point: 40°   Wind: 6mph
Humidity: 96%   Direction: 290°WNW
Pressure: 30.21"   Gusts: NA
Location:  41.0768°N, 82.7214°W
Report Text: KMFD 230834Z 29005KT 8SM BKN006 05/04 A3021 RMK AO2 T00500044
Loading
Personal Weather Stations






























Interactive Weather Map
Tropical Storm Tracking
New forecast layout! Learn more

10-Day Weather Forecast

Advertisements
Track Severe Weather on mobile